Terminal Aerodrome Forecast
Issued by NWS Aberdeen, SD

Current Version | Previous Version | Text Only | Print | Product List | Glossary On
Versions: 1 2 3 4 5 6 7 8 9 10 11 12 13 14 15 16 17 18 19 20 21 22 23 24 25 26 27 28 29 30 31 32 33 34 35 36 37 38 39 40 41 42 43 44 45 46 47 48 49 50
000
FTAK31 PAFA 300853 AAB
TAFABR
TAF AMD
PABR 300853Z 3009/3106 05016KT 1/2SM SN FZFG BKN004 OVC007
      TEMPO 3009/3012 1/2SM FZRASN FZFG BKN004 OVC007
     FM301200 01012KT 3SM -SN BR OVC004
     FM302100 25010KT 6SM -SN BR BKN007 OVC015=

USA.gov is the U.S. government's official web portal to all federal, state and local government web resources and services.